sensor_id;sensor_type;location;lat;lon;timestamp;P1;durP1;ratioP1;P2;durP2;ratioP2
33740;SDS011;20065;48.380;10.892;2023-05-21T00:01:38;18.47;;;16.37;;
33740;SDS011;20065;48.380;10.892;2023-05-21T00:04:25;19.10;;;15.87;;
33740;SDS011;20065;48.380;10.892;2023-05-21T00:07:13;19.20;;;15.13;;
33740;SDS011;20065;48.380;10.892;2023-05-21T00:09:59;17.43;;;15.63;;
33740;SDS011;20065;48.380;10.892;2023-05-21T00:12:46;17.77;;;15.37;;
33740;SDS011;20065;48.380;10.892;2023-05-21T00:15:35;18.70;;;15.80;;
33740;SDS011;20065;48.380;10.892;2023-05-21T00:18:21;18.60;;;15.30;;
33740;SDS011;20065;48.380;10.892;2023-05-21T00:21:09;18.20;;;14.60;;
33740;SDS011;20065;48.380;10.892;2023-05-21T00:23:56;20.50;;;15.60;;
33740;SDS011;20065;48.380;10.892;2023-05-21T00:26:43;22.60;;;16.00;;
33740;SDS011;20065;48.380;10.892;2023-05-21T00:29:29;19.87;;;15.93;;
33740;SDS011;20065;48.380;10.892;2023-05-21T00:32:15;19.93;;;16.13;;
33740;SDS011;20065;48.380;10.892;2023-05-21T00:35:01;20.83;;;16.30;;
33740;SDS011;20065;48.380;10.892;2023-05-21T00:37:48;19.93;;;16.57;;
33740;SDS011;20065;48.380;10.892;2023-05-21T00:40:34;23.43;;;15.60;;
33740;SDS011;20065;48.380;10.892;2023-05-21T00:43:20;20.80;;;15.93;;
33740;SDS011;20065;48.380;10.892;2023-05-21T00:46:12;21.77;;;16.37;;
33740;SDS011;20065;48.380;10.892;2023-05-21T00:49:00;17.20;;;14.70;;
33740;SDS011;20065;48.380;10.892;2023-05-21T00:51:47;22.87;;;16.40;;
33740;SDS011;20065;48.380;10.892;2023-05-21T00:54:34;23.00;;;15.20;;
33740;SDS011;20065;48.380;10.892;2023-05-21T00:57:21;19.30;;;16.10;;
33740;SDS011;20065;48.380;10.892;2023-05-21T01:00:10;20.40;;;14.50;;
33740;SDS011;20065;48.380;10.892;2023-05-21T01:02:59;20.97;;;16.23;;
33740;SDS011;20065;48.380;10.892;2023-05-21T01:05:51;17.93;;;14.67;;
33740;SDS011;20065;48.380;10.892;2023-05-21T01:08:37;19.37;;;15.80;;
33740;SDS011;20065;48.380;10.892;2023-05-21T01:11:36;23.67;;;16.83;;
33740;SDS011;20065;48.380;10.892;2023-05-21T01:14:28;17.10;;;13.97;;
33740;SDS011;20065;48.380;10.892;2023-05-21T01:17:15;18.70;;;15.20;;
33740;SDS011;20065;48.380;10.892;2023-05-21T01:20:02;20.67;;;16.40;;
33740;SDS011;20065;48.380;10.892;2023-05-21T01:22:55;18.43;;;15.40;;
33740;SDS011;20065;48.380;10.892;2023-05-21T01:25:43;18.60;;;15.90;;
33740;SDS011;20065;48.380;10.892;2023-05-21T01:28:30;17.93;;;14.87;;
33740;SDS011;20065;48.380;10.892;2023-05-21T01:31:23;16.87;;;14.70;;
33740;SDS011;20065;48.380;10.892;2023-05-21T01:34:15;18.77;;;15.10;;
33740;SDS011;20065;48.380;10.892;2023-05-21T01:40:09;18.40;;;15.60;;
33740;SDS011;20065;48.380;10.892;2023-05-21T01:42:56;19.83;;;14.90;;
33740;SDS011;20065;48.380;10.892;2023-05-21T01:45:43;20.10;;;16.37;;
33740;SDS011;20065;48.380;10.892;2023-05-21T01:48:32;21.20;;;16.37;;
33740;SDS011;20065;48.380;10.892;2023-05-21T01:51:20;18.07;;;14.93;;
33740;SDS011;20065;48.380;10.892;2023-05-21T01:54:06;19.30;;;16.00;;
33740;SDS011;20065;48.380;10.892;2023-05-21T01:56:52;20.50;;;15.87;;
33740;SDS011;20065;48.380;10.892;2023-05-21T01:59:40;17.60;;;15.00;;
33740;SDS011;20065;48.380;10.892;2023-05-21T02:02:26;19.53;;;15.63;;
33740;SDS011;20065;48.380;10.892;2023-05-21T02:05:13;21.43;;;17.13;;
33740;SDS011;20065;48.380;10.892;2023-05-21T02:07:59;18.43;;;16.40;;
33740;SDS011;20065;48.380;10.892;2023-05-21T02:10:45;17.73;;;15.30;;
33740;SDS011;20065;48.380;10.892;2023-05-21T02:13:32;20.10;;;15.83;;
33740;SDS011;20065;48.380;10.892;2023-05-21T02:16:18;21.03;;;14.83;;
33740;SDS011;20065;48.380;10.892;2023-05-21T02:19:04;18.63;;;15.17;;
33740;SDS011;20065;48.380;10.892;2023-05-21T02:21:51;17.53;;;14.80;;
33740;SDS011;20065;48.380;10.892;2023-05-21T02:24:38;18.63;;;14.20;;
33740;SDS011;20065;48.380;10.892;2023-05-21T02:27:25;17.37;;;14.90;;
33740;SDS011;20065;48.380;10.892;2023-05-21T02:30:16;17.30;;;14.63;;
33740;SDS011;20065;48.380;10.892;2023-05-21T02:33:02;17.07;;;14.40;;
33740;SDS011;20065;48.380;10.892;2023-05-21T02:35:48;16.73;;;14.47;;
33740;SDS011;20065;48.380;10.892;2023-05-21T02:38:34;20.90;;;14.60;;
33740;SDS011;20065;48.380;10.892;2023-05-21T02:41:22;17.00;;;14.70;;
33740;SDS011;20065;48.380;10.892;2023-05-21T02:44:08;24.23;;;14.67;;
33740;SDS011;20065;48.380;10.892;2023-05-21T02:46:55;15.60;;;13.87;;
33740;SDS011;20065;48.380;10.892;2023-05-21T02:49:41;18.30;;;14.90;;
33740;SDS011;20065;48.380;10.892;2023-05-21T02:52:27;16.50;;;14.33;;
33740;SDS011;20065;48.380;10.892;2023-05-21T02:55:14;18.03;;;13.63;;
33740;SDS011;20065;48.380;10.892;2023-05-21T02:58:00;21.43;;;14.50;;
33740;SDS011;20065;48.380;10.892;2023-05-21T03:00:46;18.03;;;14.13;;
33740;SDS011;20065;48.380;10.892;2023-05-21T03:03:32;17.73;;;13.40;;
33740;SDS011;20065;48.380;10.892;2023-05-21T03:06:18;20.17;;;13.57;;
33740;SDS011;20065;48.380;10.892;2023-05-21T03:09:05;16.13;;;13.40;;
33740;SDS011;20065;48.380;10.892;2023-05-21T03:11:51;17.03;;;13.17;;
33740;SDS011;20065;48.380;10.892;2023-05-21T03:14:37;19.93;;;13.87;;
33740;SDS011;20065;48.380;10.892;2023-05-21T03:17:23;20.00;;;14.60;;
33740;SDS011;20065;48.380;10.892;2023-05-21T03:20:10;15.87;;;12.90;;
33740;SDS011;20065;48.380;10.892;2023-05-21T03:23:01;15.70;;;12.67;;
33740;SDS011;20065;48.380;10.892;2023-05-21T03:25:48;17.00;;;13.10;;
33740;SDS011;20065;48.380;10.892;2023-05-21T03:28:35;17.77;;;13.70;;
33740;SDS011;20065;48.380;10.892;2023-05-21T03:31:21;16.27;;;13.00;;
33740;SDS011;20065;48.380;10.892;2023-05-21T03:34:43;22.60;;;13.60;;
33740;SDS011;20065;48.380;10.892;2023-05-21T03:37:29;15.20;;;12.63;;
33740;SDS011;20065;48.380;10.892;2023-05-21T03:40:15;17.63;;;13.23;;
33740;SDS011;20065;48.380;10.892;2023-05-21T03:43:03;21.33;;;13.97;;
33740;SDS011;20065;48.380;10.892;2023-05-21T03:45:49;16.13;;;12.10;;
33740;SDS011;20065;48.380;10.892;2023-05-21T03:49:14;18.17;;;12.63;;
33740;SDS011;20065;48.380;10.892;2023-05-21T03:52:00;16.07;;;13.30;;
33740;SDS011;20065;48.380;10.892;2023-05-21T03:54:47;20.00;;;12.93;;
33740;SDS011;20065;48.380;10.892;2023-05-21T03:57:33;14.80;;;11.97;;
33740;SDS011;20065;48.380;10.892;2023-05-21T04:00:19;16.93;;;12.07;;
33740;SDS011;20065;48.380;10.892;2023-05-21T04:03:06;16.70;;;12.93;;
33740;SDS011;20065;48.380;10.892;2023-05-21T04:05:53;16.40;;;12.60;;
33740;SDS011;20065;48.380;10.892;2023-05-21T04:08:39;18.47;;;13.23;;
33740;SDS011;20065;48.380;10.892;2023-05-21T04:11:25;16.63;;;12.87;;
33740;SDS011;20065;48.380;10.892;2023-05-21T04:14:11;14.20;;;11.47;;
33740;SDS011;20065;48.380;10.892;2023-05-21T04:16:57;16.20;;;11.70;;
33740;SDS011;20065;48.380;10.892;2023-05-21T04:19:44;15.37;;;12.10;;
33740;SDS011;20065;48.380;10.892;2023-05-21T04:22:30;16.57;;;11.80;;
33740;SDS011;20065;48.380;10.892;2023-05-21T04:25:16;17.63;;;11.17;;
33740;SDS011;20065;48.380;10.892;2023-05-21T04:28:05;14.50;;;11.23;;
33740;SDS011;20065;48.380;10.892;2023-05-21T04:30:51;13.80;;;11.00;;
33740;SDS011;20065;48.380;10.892;2023-05-21T04:33:37;15.47;;;12.27;;
33740;SDS011;20065;48.380;10.892;2023-05-21T04:36:27;14.87;;;11.20;;
33740;SDS011;20065;48.380;10.892;2023-05-21T04:39:15;13.60;;;10.63;;
33740;SDS011;20065;48.380;10.892;2023-05-21T04:42:01;16.20;;;13.00;;
33740;SDS011;20065;48.380;10.892;2023-05-21T04:44:49;13.83;;;10.80;;
33740;SDS011;20065;48.380;10.892;2023-05-21T04:47:35;13.30;;;10.47;;
33740;SDS011;20065;48.380;10.892;2023-05-21T04:50:22;13.53;;;10.37;;
33740;SDS011;20065;48.380;10.892;2023-05-21T04:53:08;14.80;;;11.33;;
33740;SDS011;20065;48.380;10.892;2023-05-21T04:55:55;13.60;;;10.70;;
33740;SDS011;20065;48.380;10.892;2023-05-21T04:58:47;12.40;;;10.43;;
33740;SDS011;20065;48.380;10.892;2023-05-21T05:01:33;12.50;;;10.63;;
33740;SDS011;20065;48.380;10.892;2023-05-21T05:04:22;18.07;;;10.50;;
33740;SDS011;20065;48.380;10.892;2023-05-21T05:07:08;14.73;;;11.07;;
33740;SDS011;20065;48.380;10.892;2023-05-21T05:09:55;12.63;;;10.67;;
33740;SDS011;20065;48.380;10.892;2023-05-21T05:12:41;13.47;;;10.70;;
33740;SDS011;20065;48.380;10.892;2023-05-21T05:15:27;14.70;;;11.30;;
33740;SDS011;20065;48.380;10.892;2023-05-21T05:18:14;12.30;;;10.03;;
33740;SDS011;20065;48.380;10.892;2023-05-21T05:21:01;14.57;;;10.57;;
33740;SDS011;20065;48.380;10.892;2023-05-21T05:23:47;19.97;;;11.00;;
33740;SDS011;20065;48.380;10.892;2023-05-21T05:26:33;12.60;;;10.83;;
33740;SDS011;20065;48.380;10.892;2023-05-21T05:29:19;14.07;;;10.63;;
33740;SDS011;20065;48.380;10.892;2023-05-21T05:32:06;13.37;;;10.40;;
33740;SDS011;20065;48.380;10.892;2023-05-21T05:34:53;16.83;;;10.97;;
33740;SDS011;20065;48.380;10.892;2023-05-21T05:37:39;18.20;;;11.10;;
33740;SDS011;20065;48.380;10.892;2023-05-21T05:40:25;13.37;;;10.80;;
33740;SDS011;20065;48.380;10.892;2023-05-21T05:43:12;13.57;;;11.00;;
33740;SDS011;20065;48.380;10.892;2023-05-21T05:45:58;16.20;;;10.90;;
33740;SDS011;20065;48.380;10.892;2023-05-21T05:48:45;12.67;;;10.63;;
33740;SDS011;20065;48.380;10.892;2023-05-21T05:51:31;14.60;;;11.20;;
33740;SDS011;20065;48.380;10.892;2023-05-21T05:54:18;13.60;;;10.77;;
33740;SDS011;20065;48.380;10.892;2023-05-21T05:57:04;11.27;;;9.90;;
33740;SDS011;20065;48.380;10.892;2023-05-21T05:59:50;13.60;;;10.93;;
33740;SDS011;20065;48.380;10.892;2023-05-21T06:02:37;15.80;;;11.40;;
33740;SDS011;20065;48.380;10.892;2023-05-21T06:05:23;15.10;;;10.60;;
33740;SDS011;20065;48.380;10.892;2023-05-21T06:08:09;12.47;;;9.60;;
33740;SDS011;20065;48.380;10.892;2023-05-21T06:10:55;17.23;;;9.80;;
33740;SDS011;20065;48.380;10.892;2023-05-21T06:13:41;14.53;;;9.90;;
33740;SDS011;20065;48.380;10.892;2023-05-21T06:16:28;14.53;;;10.53;;
33740;SDS011;20065;48.380;10.892;2023-05-21T06:19:18;17.93;;;10.07;;
33740;SDS011;20065;48.380;10.892;2023-05-21T06:22:04;18.70;;;11.47;;
33740;SDS011;20065;48.380;10.892;2023-05-21T06:24:50;13.20;;;10.40;;
33740;SDS011;20065;48.380;10.892;2023-05-21T06:27:37;14.10;;;10.70;;
33740;SDS011;20065;48.380;10.892;2023-05-21T06:30:27;13.10;;;10.30;;
33740;SDS011;20065;48.380;10.892;2023-05-21T06:33:14;12.40;;;9.80;;
33740;SDS011;20065;48.380;10.892;2023-05-21T06:36:01;15.70;;;10.90;;
33740;SDS011;20065;48.380;10.892;2023-05-21T06:38:47;12.93;;;10.30;;
33740;SDS011;20065;48.380;10.892;2023-05-21T06:41:33;17.43;;;9.73;;
33740;SDS011;20065;48.380;10.892;2023-05-21T06:44:23;11.60;;;9.67;;
33740;SDS011;20065;48.380;10.892;2023-05-21T06:47:28;13.93;;;9.90;;
33740;SDS011;20065;48.380;10.892;2023-05-21T06:50:15;12.37;;;9.40;;
33740;SDS011;20065;48.380;10.892;2023-05-21T06:53:02;12.40;;;9.43;;
33740;SDS011;20065;48.380;10.892;2023-05-21T06:55:48;13.40;;;9.37;;
33740;SDS011;20065;48.380;10.892;2023-05-21T06:58:41;11.37;;;8.93;;
33740;SDS011;20065;48.380;10.892;2023-05-21T07:01:27;10.77;;;8.70;;
33740;SDS011;20065;48.380;10.892;2023-05-21T07:04:14;12.07;;;9.53;;
33740;SDS011;20065;48.380;10.892;2023-05-21T07:07:02;13.70;;;8.53;;
33740;SDS011;20065;48.380;10.892;2023-05-21T07:09:50;12.63;;;9.70;;
33740;SDS011;20065;48.380;10.892;2023-05-21T07:12:36;11.63;;;8.80;;
33740;SDS011;20065;48.380;10.892;2023-05-21T07:15:23;11.20;;;8.87;;
33740;SDS011;20065;48.380;10.892;2023-05-21T07:18:09;15.23;;;9.57;;
33740;SDS011;20065;48.380;10.892;2023-05-21T07:20:57;12.53;;;9.00;;
33740;SDS011;20065;48.380;10.892;2023-05-21T07:23:44;19.50;;;9.30;;
33740;SDS011;20065;48.380;10.892;2023-05-21T07:26:30;11.63;;;9.07;;
33740;SDS011;20065;48.380;10.892;2023-05-21T07:29:18;10.80;;;8.90;;
33740;SDS011;20065;48.380;10.892;2023-05-21T07:32:04;10.93;;;8.97;;
33740;SDS011;20065;48.380;10.892;2023-05-21T07:34:51;11.10;;;8.13;;
33740;SDS011;20065;48.380;10.892;2023-05-21T07:37:38;13.90;;;9.13;;
33740;SDS011;20065;48.380;10.892;2023-05-21T07:40:24;10.90;;;7.83;;
33740;SDS011;20065;48.380;10.892;2023-05-21T07:43:11;9.60;;;8.10;;
33740;SDS011;20065;48.380;10.892;2023-05-21T07:45:59;18.03;;;8.80;;
33740;SDS011;20065;48.380;10.892;2023-05-21T07:48:46;11.67;;;9.43;;
33740;SDS011;20065;48.380;10.892;2023-05-21T07:51:33;8.67;;;7.23;;
33740;SDS011;20065;48.380;10.892;2023-05-21T07:54:19;11.20;;;7.03;;
33740;SDS011;20065;48.380;10.892;2023-05-21T07:57:06;9.53;;;7.53;;
33740;SDS011;20065;48.380;10.892;2023-05-21T08:00:27;10.93;;;8.37;;
33740;SDS011;20065;48.380;10.892;2023-05-21T08:03:16;12.97;;;7.80;;
33740;SDS011;20065;48.380;10.892;2023-05-21T08:06:02;12.70;;;8.23;;
33740;SDS011;20065;48.380;10.892;2023-05-21T08:08:49;10.23;;;7.47;;
33740;SDS011;20065;48.380;10.892;2023-05-21T08:11:35;17.03;;;8.37;;
33740;SDS011;20065;48.380;10.892;2023-05-21T08:14:22;14.70;;;7.57;;
33740;SDS011;20065;48.380;10.892;2023-05-21T08:17:09;9.63;;;7.17;;
33740;SDS011;20065;48.380;10.892;2023-05-21T08:19:56;9.87;;;7.37;;
33740;SDS011;20065;48.380;10.892;2023-05-21T08:22:42;8.43;;;6.70;;
33740;SDS011;20065;48.380;10.892;2023-05-21T08:25:28;10.43;;;8.10;;
33740;SDS011;20065;48.380;10.892;2023-05-21T08:28:16;9.67;;;7.93;;
33740;SDS011;20065;48.380;10.892;2023-05-21T08:31:02;11.23;;;7.70;;
33740;SDS011;20065;48.380;10.892;2023-05-21T08:33:51;11.50;;;6.60;;
33740;SDS011;20065;48.380;10.892;2023-05-21T08:36:43;10.10;;;7.67;;
33740;SDS011;20065;48.380;10.892;2023-05-21T08:39:50;10.50;;;7.70;;
33740;SDS011;20065;48.380;10.892;2023-05-21T08:42:44;11.33;;;7.37;;
33740;SDS011;20065;48.380;10.892;2023-05-21T08:45:40;11.97;;;8.33;;
33740;SDS011;20065;48.380;10.892;2023-05-21T08:48:29;13.73;;;8.10;;
33740;SDS011;20065;48.380;10.892;2023-05-21T08:51:16;9.33;;;7.17;;
33740;SDS011;20065;48.380;10.892;2023-05-21T08:54:06;10.20;;;7.80;;
33740;SDS011;20065;48.380;10.892;2023-05-21T08:56:53;11.30;;;8.93;;
33740;SDS011;20065;48.380;10.892;2023-05-21T08:59:43;11.37;;;7.77;;
33740;SDS011;20065;48.380;10.892;2023-05-21T09:02:37;11.57;;;7.53;;
33740;SDS011;20065;48.380;10.892;2023-05-21T09:05:28;12.07;;;7.63;;
33740;SDS011;20065;48.380;10.892;2023-05-21T09:08:27;11.53;;;8.60;;
33740;SDS011;20065;48.380;10.892;2023-05-21T09:11:23;11.20;;;8.50;;
33740;SDS011;20065;48.380;10.892;2023-05-21T09:14:14;8.93;;;7.00;;
33740;SDS011;20065;48.380;10.892;2023-05-21T09:17:20;10.83;;;7.70;;
33740;SDS011;20065;48.380;10.892;2023-05-21T09:20:16;11.43;;;7.90;;
33740;SDS011;20065;48.380;10.892;2023-05-21T09:23:15;11.83;;;7.67;;
33740;SDS011;20065;48.380;10.892;2023-05-21T09:26:09;9.77;;;7.73;;
33740;SDS011;20065;48.380;10.892;2023-05-21T09:28:58;9.60;;;7.33;;
33740;SDS011;20065;48.380;10.892;2023-05-21T09:31:45;10.07;;;6.93;;
33740;SDS011;20065;48.380;10.892;2023-05-21T09:34:34;12.07;;;7.20;;
33740;SDS011;20065;48.380;10.892;2023-05-21T09:37:23;11.37;;;7.83;;
33740;SDS011;20065;48.380;10.892;2023-05-21T09:42:57;10.70;;;7.47;;
33740;SDS011;20065;48.380;10.892;2023-05-21T09:45:51;9.37;;;7.27;;
33740;SDS011;20065;48.380;10.892;2023-05-21T09:48:39;11.33;;;8.27;;
33740;SDS011;20065;48.380;10.892;2023-05-21T09:51:31;11.37;;;8.20;;
33740;SDS011;20065;48.380;10.892;2023-05-21T09:54:17;11.10;;;7.40;;
33740;SDS011;20065;48.380;10.892;2023-05-21T09:57:05;10.73;;;7.40;;
33740;SDS011;20065;48.380;10.892;2023-05-21T09:59:52;9.67;;;8.03;;
33740;SDS011;20065;48.380;10.892;2023-05-21T10:02:38;10.30;;;7.30;;
33740;SDS011;20065;48.380;10.892;2023-05-21T10:05:29;11.90;;;7.40;;
33740;SDS011;20065;48.380;10.892;2023-05-21T10:08:15;11.33;;;7.33;;
33740;SDS011;20065;48.380;10.892;2023-05-21T10:11:04;10.70;;;8.00;;
33740;SDS011;20065;48.380;10.892;2023-05-21T10:13:53;9.00;;;7.20;;
33740;SDS011;20065;48.380;10.892;2023-05-21T10:16:46;10.37;;;7.50;;
33740;SDS011;20065;48.380;10.892;2023-05-21T10:19:32;8.73;;;7.10;;
33740;SDS011;20065;48.380;10.892;2023-05-21T10:22:24;10.07;;;6.90;;
33740;SDS011;20065;48.380;10.892;2023-05-21T10:25:11;7.97;;;6.33;;
33740;SDS011;20065;48.380;10.892;2023-05-21T10:27:58;10.43;;;7.37;;
33740;SDS011;20065;48.380;10.892;2023-05-21T10:30:44;8.70;;;6.57;;
33740;SDS011;20065;48.380;10.892;2023-05-21T10:33:31;11.90;;;7.20;;
33740;SDS011;20065;48.380;10.892;2023-05-21T10:36:20;7.77;;;6.00;;
33740;SDS011;20065;48.380;10.892;2023-05-21T10:39:08;9.93;;;6.83;;
33740;SDS011;20065;48.380;10.892;2023-05-21T10:48:04;10.73;;;6.80;;
33740;SDS011;20065;48.380;10.892;2023-05-21T10:51:27;9.57;;;7.23;;
33740;SDS011;20065;48.380;10.892;2023-05-21T10:54:47;14.23;;;7.10;;
33740;SDS011;20065;48.380;10.892;2023-05-21T10:58:14;7.57;;;6.03;;
33740;SDS011;20065;48.380;10.892;2023-05-21T11:01:12;7.87;;;5.83;;
33740;SDS011;20065;48.380;10.892;2023-05-21T11:03:59;8.20;;;6.33;;
33740;SDS011;20065;48.380;10.892;2023-05-21T11:06:46;8.87;;;6.77;;
33740;SDS011;20065;48.380;10.892;2023-05-21T11:09:33;9.10;;;7.10;;
33740;SDS011;20065;48.380;10.892;2023-05-21T11:12:20;11.00;;;7.07;;
33740;SDS011;20065;48.380;10.892;2023-05-21T11:15:08;8.73;;;7.37;;
33740;SDS011;20065;48.380;10.892;2023-05-21T11:18:00;10.00;;;7.50;;
33740;SDS011;20065;48.380;10.892;2023-05-21T11:20:50;9.70;;;7.23;;
33740;SDS011;20065;48.380;10.892;2023-05-21T11:29:37;10.23;;;7.00;;
33740;SDS011;20065;48.380;10.892;2023-05-21T11:32:25;10.07;;;7.50;;
33740;SDS011;20065;48.380;10.892;2023-05-21T11:35:14;13.30;;;8.00;;
33740;SDS011;20065;48.380;10.892;2023-05-21T11:38:00;8.23;;;7.30;;
33740;SDS011;20065;48.380;10.892;2023-05-21T11:40:50;10.50;;;7.60;;
33740;SDS011;20065;48.380;10.892;2023-05-21T11:43:42;12.70;;;7.47;;
33740;SDS011;20065;48.380;10.892;2023-05-21T11:46:28;11.93;;;7.23;;
33740;SDS011;20065;48.380;10.892;2023-05-21T11:49:15;9.80;;;7.60;;
33740;SDS011;20065;48.380;10.892;2023-05-21T11:52:02;8.77;;;6.80;;
33740;SDS011;20065;48.380;10.892;2023-05-21T11:54:50;8.87;;;6.67;;
33740;SDS011;20065;48.380;10.892;2023-05-21T11:57:43;10.33;;;7.10;;
33740;SDS011;20065;48.380;10.892;2023-05-21T12:00:29;10.80;;;6.67;;
33740;SDS011;20065;48.380;10.892;2023-05-21T12:03:15;8.90;;;6.77;;
33740;SDS011;20065;48.380;10.892;2023-05-21T12:06:05;8.80;;;6.93;;
33740;SDS011;20065;48.380;10.892;2023-05-21T12:08:52;8.00;;;7.20;;
33740;SDS011;20065;48.380;10.892;2023-05-21T12:11:42;12.70;;;7.77;;
33740;SDS011;20065;48.380;10.892;2023-05-21T12:14:28;11.27;;;7.43;;
33740;SDS011;20065;48.380;10.892;2023-05-21T12:17:15;11.70;;;7.57;;
33740;SDS011;20065;48.380;10.892;2023-05-21T12:20:03;9.77;;;7.13;;
33740;SDS011;20065;48.380;10.892;2023-05-21T12:22:52;9.70;;;7.40;;
33740;SDS011;20065;48.380;10.892;2023-05-21T12:25:38;9.13;;;7.20;;
33740;SDS011;20065;48.380;10.892;2023-05-21T12:28:25;10.63;;;8.67;;
33740;SDS011;20065;48.380;10.892;2023-05-21T12:31:14;10.77;;;8.50;;
33740;SDS011;20065;48.380;10.892;2023-05-21T12:34:00;10.47;;;8.77;;
33740;SDS011;20065;48.380;10.892;2023-05-21T12:36:48;9.70;;;7.30;;
33740;SDS011;20065;48.380;10.892;2023-05-21T12:39:39;8.67;;;6.70;;
33740;SDS011;20065;48.380;10.892;2023-05-21T12:42:32;14.23;;;7.63;;
33740;SDS011;20065;48.380;10.892;2023-05-21T12:45:19;9.83;;;7.77;;
33740;SDS011;20065;48.380;10.892;2023-05-21T12:48:07;8.50;;;7.20;;
33740;SDS011;20065;48.380;10.892;2023-05-21T12:50:57;10.57;;;7.93;;
33740;SDS011;20065;48.380;10.892;2023-05-21T12:53:44;8.47;;;6.90;;
33740;SDS011;20065;48.380;10.892;2023-05-21T12:56:42;10.00;;;7.60;;
33740;SDS011;20065;48.380;10.892;2023-05-21T12:59:38;9.13;;;7.90;;
33740;SDS011;20065;48.380;10.892;2023-05-21T13:02:34;10.97;;;7.47;;
33740;SDS011;20065;48.380;10.892;2023-05-21T13:05:24;10.03;;;6.93;;
33740;SDS011;20065;48.380;10.892;2023-05-21T13:08:10;9.07;;;7.50;;
33740;SDS011;20065;48.380;10.892;2023-05-21T13:10:58;10.00;;;7.27;;
33740;SDS011;20065;48.380;10.892;2023-05-21T13:13:46;11.60;;;7.03;;
33740;SDS011;20065;48.380;10.892;2023-05-21T13:16:32;10.23;;;6.93;;
33740;SDS011;20065;48.380;10.892;2023-05-21T13:19:18;9.87;;;7.23;;
33740;SDS011;20065;48.380;10.892;2023-05-21T13:22:04;7.80;;;6.00;;
33740;SDS011;20065;48.380;10.892;2023-05-21T13:24:51;9.47;;;7.07;;
33740;SDS011;20065;48.380;10.892;2023-05-21T13:27:38;9.70;;;6.50;;
33740;SDS011;20065;48.380;10.892;2023-05-21T13:30:24;11.27;;;6.07;;
33740;SDS011;20065;48.380;10.892;2023-05-21T13:33:13;8.07;;;5.80;;
33740;SDS011;20065;48.380;10.892;2023-05-21T13:36:00;10.47;;;5.90;;
33740;SDS011;20065;48.380;10.892;2023-05-21T13:38:46;10.83;;;6.03;;
33740;SDS011;20065;48.380;10.892;2023-05-21T13:41:32;10.17;;;6.50;;
33740;SDS011;20065;48.380;10.892;2023-05-21T13:44:18;8.67;;;6.67;;
33740;SDS011;20065;48.380;10.892;2023-05-21T13:47:05;10.20;;;5.93;;
33740;SDS011;20065;48.380;10.892;2023-05-21T13:49:51;9.33;;;6.53;;
33740;SDS011;20065;48.380;10.892;2023-05-21T13:52:41;8.73;;;6.67;;
33740;SDS011;20065;48.380;10.892;2023-05-21T13:55:28;10.17;;;6.70;;
33740;SDS011;20065;48.380;10.892;2023-05-21T13:58:14;10.00;;;7.30;;
33740;SDS011;20065;48.380;10.892;2023-05-21T14:01:02;9.40;;;6.97;;
33740;SDS011;20065;48.380;10.892;2023-05-21T14:03:48;10.23;;;6.70;;
33740;SDS011;20065;48.380;10.892;2023-05-21T14:06:35;10.50;;;7.00;;
33740;SDS011;20065;48.380;10.892;2023-05-21T14:09:25;8.40;;;6.63;;
33740;SDS011;20065;48.380;10.892;2023-05-21T14:12:12;8.33;;;6.37;;
33740;SDS011;20065;48.380;10.892;2023-05-21T14:14:58;8.13;;;6.20;;
33740;SDS011;20065;48.380;10.892;2023-05-21T14:17:44;9.17;;;6.60;;
33740;SDS011;20065;48.380;10.892;2023-05-21T14:20:30;9.77;;;7.10;;
33740;SDS011;20065;48.380;10.892;2023-05-21T14:23:16;9.77;;;5.83;;
33740;SDS011;20065;48.380;10.892;2023-05-21T14:26:05;10.27;;;6.93;;
33740;SDS011;20065;48.380;10.892;2023-05-21T14:28:56;10.27;;;7.07;;
33740;SDS011;20065;48.380;10.892;2023-05-21T14:31:42;6.60;;;5.30;;
33740;SDS011;20065;48.380;10.892;2023-05-21T14:34:28;8.53;;;7.13;;
33740;SDS011;20065;48.380;10.892;2023-05-21T14:37:14;9.33;;;6.60;;
33740;SDS011;20065;48.380;10.892;2023-05-21T14:40:01;9.40;;;6.77;;
33740;SDS011;20065;48.380;10.892;2023-05-21T14:42:49;9.87;;;6.00;;
33740;SDS011;20065;48.380;10.892;2023-05-21T14:45:37;7.30;;;5.90;;
33740;SDS011;20065;48.380;10.892;2023-05-21T14:48:26;9.73;;;6.10;;
33740;SDS011;20065;48.380;10.892;2023-05-21T14:51:12;9.63;;;6.00;;
33740;SDS011;20065;48.380;10.892;2023-05-21T14:53:58;8.57;;;5.80;;
33740;SDS011;20065;48.380;10.892;2023-05-21T14:56:45;11.53;;;6.87;;
33740;SDS011;20065;48.380;10.892;2023-05-21T14:59:32;9.67;;;5.80;;
33740;SDS011;20065;48.380;10.892;2023-05-21T15:02:18;10.83;;;6.57;;
33740;SDS011;20065;48.380;10.892;2023-05-21T15:05:04;7.20;;;5.63;;
33740;SDS011;20065;48.380;10.892;2023-05-21T15:07:51;12.53;;;6.47;;
33740;SDS011;20065;48.380;10.892;2023-05-21T15:10:37;6.67;;;5.30;;
33740;SDS011;20065;48.380;10.892;2023-05-21T15:13:23;9.30;;;5.90;;
33740;SDS011;20065;48.380;10.892;2023-05-21T15:16:11;9.00;;;6.23;;
33740;SDS011;20065;48.380;10.892;2023-05-21T15:18:57;9.97;;;6.57;;
33740;SDS011;20065;48.380;10.892;2023-05-21T15:21:44;11.10;;;5.73;;
33740;SDS011;20065;48.380;10.892;2023-05-21T15:24:33;7.90;;;6.43;;
33740;SDS011;20065;48.380;10.892;2023-05-21T15:27:19;9.47;;;6.27;;
33740;SDS011;20065;48.380;10.892;2023-05-21T15:30:06;9.10;;;6.60;;
33740;SDS011;20065;48.380;10.892;2023-05-21T15:32:52;8.50;;;6.67;;
33740;SDS011;20065;48.380;10.892;2023-05-21T15:35:38;9.03;;;5.47;;
33740;SDS011;20065;48.380;10.892;2023-05-21T15:38:25;9.30;;;6.00;;
33740;SDS011;20065;48.380;10.892;2023-05-21T15:41:11;12.67;;;6.47;;
33740;SDS011;20065;48.380;10.892;2023-05-21T15:44:00;8.10;;;5.60;;
33740;SDS011;20065;48.380;10.892;2023-05-21T15:46:46;11.37;;;6.10;;
33740;SDS011;20065;48.380;10.892;2023-05-21T15:49:38;8.07;;;5.77;;
33740;SDS011;20065;48.380;10.892;2023-05-21T15:52:24;8.67;;;5.93;;
33740;SDS011;20065;48.380;10.892;2023-05-21T15:55:10;8.40;;;6.50;;
33740;SDS011;20065;48.380;10.892;2023-05-21T15:57:58;9.47;;;6.47;;
33740;SDS011;20065;48.380;10.892;2023-05-21T16:00:45;8.50;;;6.93;;
33740;SDS011;20065;48.380;10.892;2023-05-21T16:03:31;9.13;;;6.63;;
33740;SDS011;20065;48.380;10.892;2023-05-21T16:06:17;8.93;;;6.23;;
33740;SDS011;20065;48.380;10.892;2023-05-21T16:09:04;13.07;;;7.07;;
33740;SDS011;20065;48.380;10.892;2023-05-21T16:11:51;11.87;;;6.67;;
33740;SDS011;20065;48.380;10.892;2023-05-21T16:14:37;10.93;;;6.70;;
33740;SDS011;20065;48.380;10.892;2023-05-21T16:17:24;11.37;;;7.63;;
33740;SDS011;20065;48.380;10.892;2023-05-21T16:20:11;11.93;;;7.13;;
33740;SDS011;20065;48.380;10.892;2023-05-21T16:22:57;16.53;;;6.73;;
33740;SDS011;20065;48.380;10.892;2023-05-21T16:25:43;9.20;;;7.17;;
33740;SDS011;20065;48.380;10.892;2023-05-21T16:28:32;11.53;;;7.03;;
33740;SDS011;20065;48.380;10.892;2023-05-21T16:31:18;9.50;;;6.90;;
33740;SDS011;20065;48.380;10.892;2023-05-21T16:34:05;8.50;;;6.30;;
33740;SDS011;20065;48.380;10.892;2023-05-21T16:36:51;10.10;;;7.77;;
33740;SDS011;20065;48.380;10.892;2023-05-21T16:39:38;11.00;;;7.07;;
33740;SDS011;20065;48.380;10.892;2023-05-21T16:42:24;10.80;;;6.90;;